sensor_id;sensor_type;location;lat;lon;timestamp;pressure;altitude;pressure_sealevel;temperature
71081;BMP180;58740;50.672;18.690;2022-11-15T00:01:18;99244.60;;;4.90
71081;BMP180;58740;50.672;18.690;2022-11-15T00:03:50;99239.40;;;4.90
71081;BMP180;58740;50.672;18.690;2022-11-15T00:06:19;99233.60;;;4.80
71081;BMP180;58740;50.672;18.690;2022-11-15T00:08:46;99230.40;;;4.80
71081;BMP180;58740;50.672;18.690;2022-11-15T00:11:15;99234.60;;;4.80
71081;BMP180;58740;50.672;18.690;2022-11-15T00:13:42;99232.00;;;4.80
71081;BMP180;58740;50.672;18.690;2022-11-15T00:16:10;99226.80;;;4.80
71081;BMP180;58740;50.672;18.690;2022-11-15T00:18:38;99227.80;;;4.80
71081;BMP180;58740;50.672;18.690;2022-11-15T00:21:10;99223.40;;;4.80
71081;BMP180;58740;50.672;18.690;2022-11-15T00:23:39;99225.00;;;4.80
71081;BMP180;58740;50.672;18.690;2022-11-15T00:26:11;99219.40;;;4.78
71081;BMP180;58740;50.672;18.690;2022-11-15T00:28:41;99220.00;;;4.76
71081;BMP180;58740;50.672;18.690;2022-11-15T00:31:13;99216.20;;;4.76
71081;BMP180;58740;50.672;18.690;2022-11-15T00:33:43;99212.00;;;4.80
71081;BMP180;58740;50.672;18.690;2022-11-15T00:36:11;99215.20;;;4.80
71081;BMP180;58740;50.672;18.690;2022-11-15T00:38:40;99213.40;;;4.80
71081;BMP180;58740;50.672;18.690;2022-11-15T00:41:08;99212.00;;;4.80
71081;BMP180;58740;50.672;18.690;2022-11-15T00:43:37;99207.20;;;4.80
71081;BMP180;58740;50.672;18.690;2022-11-15T00:46:07;99206.80;;;4.80
71081;BMP180;58740;50.672;18.690;2022-11-15T00:48:37;99204.60;;;4.80
71081;BMP180;58740;50.672;18.690;2022-11-15T00:51:05;99202.60;;;4.80
71081;BMP180;58740;50.672;18.690;2022-11-15T00:53:33;99197.60;;;4.80
71081;BMP180;58740;50.672;18.690;2022-11-15T00:56:01;99194.40;;;4.80
71081;BMP180;58740;50.672;18.690;2022-11-15T00:58:29;99189.80;;;4.80
71081;BMP180;58740;50.672;18.690;2022-11-15T01:00:56;99187.20;;;4.80
71081;BMP180;58740;50.672;18.690;2022-11-15T01:03:34;99185.80;;;4.80
71081;BMP180;58740;50.672;18.690;2022-11-15T01:06:03;99178.20;;;4.80
71081;BMP180;58740;50.672;18.690;2022-11-15T01:08:31;99175.20;;;4.70
71081;BMP180;58740;50.672;18.690;2022-11-15T01:11:04;99167.60;;;4.74
71081;BMP180;58740;50.672;18.690;2022-11-15T01:13:34;99175.80;;;4.80
71081;BMP180;58740;50.672;18.690;2022-11-15T01:16:13;99171.40;;;4.80
71081;BMP180;58740;50.672;18.690;2022-11-15T01:18:41;99173.60;;;4.80
71081;BMP180;58740;50.672;18.690;2022-11-15T01:21:16;99174.80;;;4.80
71081;BMP180;58740;50.672;18.690;2022-11-15T01:23:45;99171.80;;;4.80
71081;BMP180;58740;50.672;18.690;2022-11-15T01:26:14;99169.40;;;4.88
71081;BMP180;58740;50.672;18.690;2022-11-15T01:28:42;99160.20;;;4.86
71081;BMP180;58740;50.672;18.690;2022-11-15T01:31:15;99159.20;;;4.80
71081;BMP180;58740;50.672;18.690;2022-11-15T01:33:44;99161.20;;;4.88
71081;BMP180;58740;50.672;18.690;2022-11-15T01:36:19;99165.20;;;4.90
71081;BMP180;58740;50.672;18.690;2022-11-15T01:38:59;99167.20;;;4.92
71081;BMP180;58740;50.672;18.690;2022-11-15T01:41:31;99158.80;;;5.00
71081;BMP180;58740;50.672;18.690;2022-11-15T01:47:03;99154.00;;;5.10
71081;BMP180;58740;50.672;18.690;2022-11-15T01:49:38;99153.80;;;5.10
71081;BMP180;58740;50.672;18.690;2022-11-15T01:52:17;99154.40;;;5.10
71081;BMP180;58740;50.672;18.690;2022-11-15T01:54:50;99149.20;;;5.10
71081;BMP180;58740;50.672;18.690;2022-11-15T01:57:20;99142.80;;;5.10
71081;BMP180;58740;50.672;18.690;2022-11-15T01:59:48;99140.60;;;5.14
71081;BMP180;58740;50.672;18.690;2022-11-15T02:02:16;99137.60;;;5.10
71081;BMP180;58740;50.672;18.690;2022-11-15T02:04:46;99129.20;;;5.10
71081;BMP180;58740;50.672;18.690;2022-11-15T02:07:20;99131.80;;;5.10
71081;BMP180;58740;50.672;18.690;2022-11-15T02:09:50;99129.60;;;5.10
71081;BMP180;58740;50.672;18.690;2022-11-15T02:12:21;99126.60;;;5.00
71081;BMP180;58740;50.672;18.690;2022-11-15T02:14:53;99122.80;;;5.00
71081;BMP180;58740;50.672;18.690;2022-11-15T02:24:06;99123.20;;;5.06
71081;BMP180;58740;50.672;18.690;2022-11-15T02:27:35;99113.60;;;5.06
71081;BMP180;58740;50.672;18.690;2022-11-15T02:30:40;99108.20;;;5.00
71081;BMP180;58740;50.672;18.690;2022-11-15T02:36:15;99105.80;;;4.90
71081;BMP180;58740;50.672;18.690;2022-11-15T02:39:02;99102.00;;;4.90
71081;BMP180;58740;50.672;18.690;2022-11-15T02:44:37;99096.00;;;4.80
71081;BMP180;58740;50.672;18.690;2022-11-15T02:47:12;99091.40;;;4.80
71081;BMP180;58740;50.672;18.690;2022-11-15T02:52:20;99082.40;;;4.64
71081;BMP180;58740;50.672;18.690;2022-11-15T02:55:01;99068.20;;;4.58
71081;BMP180;58740;50.672;18.690;2022-11-15T02:57:52;99062.00;;;4.50
71081;BMP180;58740;50.672;18.690;2022-11-15T03:00:21;99056.80;;;4.48
71081;BMP180;58740;50.672;18.690;2022-11-15T03:05:41;99053.20;;;4.46
71081;BMP180;58740;50.672;18.690;2022-11-15T03:11:22;99055.80;;;4.60
71081;BMP180;58740;50.672;18.690;2022-11-15T03:13:57;99056.00;;;4.64
71081;BMP180;58740;50.672;18.690;2022-11-15T03:19:35;99054.40;;;4.70
71081;BMP180;58740;50.672;18.690;2022-11-15T03:22:12;99048.60;;;4.70
71081;BMP180;58740;50.672;18.690;2022-11-15T03:24:44;99048.20;;;4.74
71081;BMP180;58740;50.672;18.690;2022-11-15T03:27:17;99042.80;;;4.80
71081;BMP180;58740;50.672;18.690;2022-11-15T03:29:56;99041.40;;;4.84
71081;BMP180;58740;50.672;18.690;2022-11-15T03:32:29;99034.80;;;4.90
71081;BMP180;58740;50.672;18.690;2022-11-15T03:35:04;99039.60;;;4.80
71081;BMP180;58740;50.672;18.690;2022-11-15T03:37:55;99040.00;;;4.80
71081;BMP180;58740;50.672;18.690;2022-11-15T03:40:35;99033.60;;;4.80
71081;BMP180;58740;50.672;18.690;2022-11-15T03:43:24;99032.00;;;4.80
71081;BMP180;58740;50.672;18.690;2022-11-15T03:46:06;99030.40;;;4.90
71081;BMP180;58740;50.672;18.690;2022-11-15T03:48:43;99025.40;;;4.90
71081;BMP180;58740;50.672;18.690;2022-11-15T03:51:13;99021.60;;;4.90
71081;BMP180;58740;50.672;18.690;2022-11-15T03:53:41;99021.00;;;4.90
71081;BMP180;58740;50.672;18.690;2022-11-15T03:56:09;99023.00;;;5.00
71081;BMP180;58740;50.672;18.690;2022-11-15T03:58:37;99017.00;;;5.00
71081;BMP180;58740;50.672;18.690;2022-11-15T04:01:04;99020.60;;;5.00
71081;BMP180;58740;50.672;18.690;2022-11-15T04:03:32;99019.00;;;5.00
71081;BMP180;58740;50.672;18.690;2022-11-15T04:06:01;99015.20;;;5.00
71081;BMP180;58740;50.672;18.690;2022-11-15T04:08:29;99011.60;;;5.00
71081;BMP180;58740;50.672;18.690;2022-11-15T04:10:56;99005.60;;;5.00
71081;BMP180;58740;50.672;18.690;2022-11-15T04:13:25;99006.20;;;5.00
71081;BMP180;58740;50.672;18.690;2022-11-15T04:15:53;99003.40;;;4.90
71081;BMP180;58740;50.672;18.690;2022-11-15T04:18:20;99005.60;;;4.90
71081;BMP180;58740;50.672;18.690;2022-11-15T04:20:48;98999.00;;;4.80
71081;BMP180;58740;50.672;18.690;2022-11-15T04:23:35;99001.60;;;4.80
71081;BMP180;58740;50.672;18.690;2022-11-15T04:26:22;98999.00;;;4.80
71081;BMP180;58740;50.672;18.690;2022-11-15T04:28:50;98998.80;;;4.80
71081;BMP180;58740;50.672;18.690;2022-11-15T04:31:37;98993.60;;;4.72
71081;BMP180;58740;50.672;18.690;2022-11-15T04:34:05;98995.40;;;4.70
71081;BMP180;58740;50.672;18.690;2022-11-15T04:36:33;98993.00;;;4.70
71081;BMP180;58740;50.672;18.690;2022-11-15T04:39:20;98992.40;;;4.60
71081;BMP180;58740;50.672;18.690;2022-11-15T04:41:47;98992.80;;;4.60
71081;BMP180;58740;50.672;18.690;2022-11-15T04:44:15;98985.80;;;4.60
71081;BMP180;58740;50.672;18.690;2022-11-15T04:46:44;98989.00;;;4.60
71081;BMP180;58740;50.672;18.690;2022-11-15T04:49:11;98982.00;;;4.50
71081;BMP180;58740;50.672;18.690;2022-11-15T04:51:39;98980.40;;;4.50
71081;BMP180;58740;50.672;18.690;2022-11-15T04:54:07;98983.00;;;4.50
71081;BMP180;58740;50.672;18.690;2022-11-15T04:56:34;98984.20;;;4.50
71081;BMP180;58740;50.672;18.690;2022-11-15T04:59:02;98985.00;;;4.48
71081;BMP180;58740;50.672;18.690;2022-11-15T05:01:30;98978.60;;;4.40
71081;BMP180;58740;50.672;18.690;2022-11-15T05:03:58;98983.00;;;4.42
71081;BMP180;58740;50.672;18.690;2022-11-15T05:06:49;98980.60;;;4.40
71081;BMP180;58740;50.672;18.690;2022-11-15T05:09:20;98980.80;;;4.40
71081;BMP180;58740;50.672;18.690;2022-11-15T05:11:48;98978.20;;;4.38
71081;BMP180;58740;50.672;18.690;2022-11-15T05:14:16;98974.80;;;4.30
71081;BMP180;58740;50.672;18.690;2022-11-15T05:16:44;98973.40;;;4.30
71081;BMP180;58740;50.672;18.690;2022-11-15T05:19:12;98965.60;;;4.30
71081;BMP180;58740;50.672;18.690;2022-11-15T05:21:40;98965.40;;;4.30
71081;BMP180;58740;50.672;18.690;2022-11-15T05:24:10;98966.00;;;4.26
71081;BMP180;58740;50.672;18.690;2022-11-15T05:26:38;98965.60;;;4.30
71081;BMP180;58740;50.672;18.690;2022-11-15T05:29:08;98963.00;;;4.30
71081;BMP180;58740;50.672;18.690;2022-11-15T05:31:40;98960.40;;;4.30
71081;BMP180;58740;50.672;18.690;2022-11-15T05:34:09;98961.60;;;4.36
71081;BMP180;58740;50.672;18.690;2022-11-15T05:36:44;98948.40;;;4.40
71081;BMP180;58740;50.672;18.690;2022-11-15T05:39:15;98952.00;;;4.40
71081;BMP180;58740;50.672;18.690;2022-11-15T05:41:56;98959.80;;;4.40
71081;BMP180;58740;50.672;18.690;2022-11-15T05:44:27;98963.60;;;4.40
71081;BMP180;58740;50.672;18.690;2022-11-15T05:46:56;98965.00;;;4.40
71081;BMP180;58740;50.672;18.690;2022-11-15T05:49:30;98968.20;;;4.40
71081;BMP180;58740;50.672;18.690;2022-11-15T05:51:59;98967.00;;;4.42
71081;BMP180;58740;50.672;18.690;2022-11-15T05:54:27;98963.60;;;4.48
71081;BMP180;58740;50.672;18.690;2022-11-15T05:56:54;98958.20;;;4.50
71081;BMP180;58740;50.672;18.690;2022-11-15T05:59:24;98960.00;;;4.50
71081;BMP180;58740;50.672;18.690;2022-11-15T06:01:51;98961.40;;;4.44
71081;BMP180;58740;50.672;18.690;2022-11-15T06:04:19;98961.20;;;4.40
71081;BMP180;58740;50.672;18.690;2022-11-15T06:06:47;98959.40;;;4.40
71081;BMP180;58740;50.672;18.690;2022-11-15T06:09:14;98963.20;;;4.40
71081;BMP180;58740;50.672;18.690;2022-11-15T06:11:42;98961.80;;;4.40
71081;BMP180;58740;50.672;18.690;2022-11-15T06:14:10;98965.00;;;4.40
71081;BMP180;58740;50.672;18.690;2022-11-15T06:16:38;98958.00;;;4.42
71081;BMP180;58740;50.672;18.690;2022-11-15T06:19:06;98953.00;;;4.48
71081;BMP180;58740;50.672;18.690;2022-11-15T06:21:35;98955.80;;;4.46
71081;BMP180;58740;50.672;18.690;2022-11-15T06:24:04;98954.60;;;4.42
71081;BMP180;58740;50.672;18.690;2022-11-15T06:26:32;98955.00;;;4.48
71081;BMP180;58740;50.672;18.690;2022-11-15T06:29:00;98954.40;;;4.50
71081;BMP180;58740;50.672;18.690;2022-11-15T06:31:27;98949.40;;;4.50
71081;BMP180;58740;50.672;18.690;2022-11-15T06:33:55;98952.80;;;4.50
71081;BMP180;58740;50.672;18.690;2022-11-15T06:36:23;98953.40;;;4.60
71081;BMP180;58740;50.672;18.690;2022-11-15T06:38:51;98950.80;;;4.60
71081;BMP180;58740;50.672;18.690;2022-11-15T06:41:18;98954.60;;;4.68
71081;BMP180;58740;50.672;18.690;2022-11-15T06:43:48;98948.60;;;4.70
71081;BMP180;58740;50.672;18.690;2022-11-15T06:46:16;98953.80;;;4.70
71081;BMP180;58740;50.672;18.690;2022-11-15T06:48:43;98952.60;;;4.70
71081;BMP180;58740;50.672;18.690;2022-11-15T06:51:11;98952.40;;;4.70
71081;BMP180;58740;50.672;18.690;2022-11-15T06:53:39;98953.20;;;4.80
71081;BMP180;58740;50.672;18.690;2022-11-15T06:56:07;98946.80;;;4.80
71081;BMP180;58740;50.672;18.690;2022-11-15T06:58:35;98956.80;;;4.90
71081;BMP180;58740;50.672;18.690;2022-11-15T07:01:10;98953.20;;;4.90
71081;BMP180;58740;50.672;18.690;2022-11-15T07:03:40;98959.20;;;4.96
71081;BMP180;58740;50.672;18.690;2022-11-15T07:06:09;98957.80;;;5.00
71081;BMP180;58740;50.672;18.690;2022-11-15T07:08:37;98961.80;;;5.00
71081;BMP180;58740;50.672;18.690;2022-11-15T07:11:07;98954.80;;;5.10
71081;BMP180;58740;50.672;18.690;2022-11-15T07:13:36;98957.00;;;5.18
71081;BMP180;58740;50.672;18.690;2022-11-15T07:16:08;98962.60;;;5.20
71081;BMP180;58740;50.672;18.690;2022-11-15T07:18:39;98963.20;;;5.30
71081;BMP180;58740;50.672;18.690;2022-11-15T07:21:10;98964.80;;;5.40
71081;BMP180;58740;50.672;18.690;2022-11-15T07:23:39;98958.20;;;5.50
71081;BMP180;58740;50.672;18.690;2022-11-15T07:26:07;98956.00;;;5.60
71081;BMP180;58740;50.672;18.690;2022-11-15T07:28:36;98952.20;;;5.70
71081;BMP180;58740;50.672;18.690;2022-11-15T07:31:08;98950.00;;;5.70
71081;BMP180;58740;50.672;18.690;2022-11-15T07:33:37;98953.00;;;5.80
71081;BMP180;58740;50.672;18.690;2022-11-15T07:36:06;98944.00;;;5.90
71081;BMP180;58740;50.672;18.690;2022-11-15T07:38:35;98946.60;;;5.94
71081;BMP180;58740;50.672;18.690;2022-11-15T07:41:09;98944.60;;;6.00
71081;BMP180;58740;50.672;18.690;2022-11-15T07:43:37;98940.60;;;6.10
71081;BMP180;58740;50.672;18.690;2022-11-15T07:46:07;98936.20;;;6.12
71081;BMP180;58740;50.672;18.690;2022-11-15T07:48:38;98933.60;;;6.16
71081;BMP180;58740;50.672;18.690;2022-11-15T07:51:14;98931.20;;;6.20
71081;BMP180;58740;50.672;18.690;2022-11-15T07:53:44;98929.60;;;6.30
71081;BMP180;58740;50.672;18.690;2022-11-15T07:56:12;98934.00;;;6.30
71081;BMP180;58740;50.672;18.690;2022-11-15T07:58:41;98942.00;;;6.40
71081;BMP180;58740;50.672;18.690;2022-11-15T08:01:10;98932.20;;;6.48
71081;BMP180;58740;50.672;18.690;2022-11-15T08:03:38;98936.80;;;6.50
71081;BMP180;58740;50.672;18.690;2022-11-15T08:06:06;98928.80;;;6.58
71081;BMP180;58740;50.672;18.690;2022-11-15T08:08:33;98926.80;;;6.60
71081;BMP180;58740;50.672;18.690;2022-11-15T08:11:01;98926.60;;;6.62
71081;BMP180;58740;50.672;18.690;2022-11-15T08:13:29;98923.80;;;6.70
71081;BMP180;58740;50.672;18.690;2022-11-15T08:16:01;98918.20;;;6.80
71081;BMP180;58740;50.672;18.690;2022-11-15T08:18:29;98919.40;;;6.84
71081;BMP180;58740;50.672;18.690;2022-11-15T08:21:01;98913.60;;;6.90
71081;BMP180;58740;50.672;18.690;2022-11-15T08:23:29;98925.60;;;7.00
71081;BMP180;58740;50.672;18.690;2022-11-15T08:26:03;98916.60;;;7.04
71081;BMP180;58740;50.672;18.690;2022-11-15T08:28:31;98918.40;;;7.10
71081;BMP180;58740;50.672;18.690;2022-11-15T08:31:00;98918.00;;;7.20
71081;BMP180;58740;50.672;18.690;2022-11-15T08:33:28;98918.40;;;7.26
71081;BMP180;58740;50.672;18.690;2022-11-15T08:35:59;98915.00;;;7.36
71081;BMP180;58740;50.672;18.690;2022-11-15T08:38:27;98916.80;;;7.40
71081;BMP180;58740;50.672;18.690;2022-11-15T08:41:04;98917.60;;;7.50
71081;BMP180;58740;50.672;18.690;2022-11-15T08:43:33;98919.80;;;7.60
71081;BMP180;58740;50.672;18.690;2022-11-15T08:46:01;98922.20;;;7.66
71081;BMP180;58740;50.672;18.690;2022-11-15T08:48:29;98923.60;;;7.70
71081;BMP180;58740;50.672;18.690;2022-11-15T08:50:58;98920.00;;;7.76
71081;BMP180;58740;50.672;18.690;2022-11-15T08:53:25;98919.00;;;7.80
71081;BMP180;58740;50.672;18.690;2022-11-15T08:55:53;98918.80;;;7.90
71081;BMP180;58740;50.672;18.690;2022-11-15T08:58:21;98921.00;;;8.00
71081;BMP180;58740;50.672;18.690;2022-11-15T09:00:49;98918.20;;;8.06
71081;BMP180;58740;50.672;18.690;2022-11-15T09:03:16;98915.40;;;8.10
71081;BMP180;58740;50.672;18.690;2022-11-15T09:05:44;98915.20;;;8.20
71081;BMP180;58740;50.672;18.690;2022-11-15T09:08:12;98911.20;;;8.30
71081;BMP180;58740;50.672;18.690;2022-11-15T09:11:09;98910.60;;;8.30
71081;BMP180;58740;50.672;18.690;2022-11-15T09:13:37;98912.40;;;8.40
71081;BMP180;58740;50.672;18.690;2022-11-15T09:16:05;98914.00;;;8.50
71081;BMP180;58740;50.672;18.690;2022-11-15T09:18:34;98912.00;;;8.50
71081;BMP180;58740;50.672;18.690;2022-11-15T09:21:02;98910.00;;;8.68
71081;BMP180;58740;50.672;18.690;2022-11-15T09:23:31;98912.20;;;8.72
71081;BMP180;58740;50.672;18.690;2022-11-15T09:26:01;98911.60;;;8.80
71081;BMP180;58740;50.672;18.690;2022-11-15T09:28:32;98911.80;;;8.88
71081;BMP180;58740;50.672;18.690;2022-11-15T09:31:17;98900.80;;;8.90
71081;BMP180;58740;50.672;18.690;2022-11-15T09:33:48;98895.20;;;9.00
71081;BMP180;58740;50.672;18.690;2022-11-15T09:36:16;98894.80;;;9.04
71081;BMP180;58740;50.672;18.690;2022-11-15T09:38:44;98885.40;;;9.10
71081;BMP180;58740;50.672;18.690;2022-11-15T09:47:21;98878.20;;;9.30
71081;BMP180;58740;50.672;18.690;2022-11-15T09:49:59;98870.00;;;9.40
71081;BMP180;58740;50.672;18.690;2022-11-15T09:52:29;98867.40;;;9.46
71081;BMP180;58740;50.672;18.690;2022-11-15T09:54:56;98862.60;;;9.50
71081;BMP180;58740;50.672;18.690;2022-11-15T09:57:54;98863.20;;;9.60
71081;BMP180;58740;50.672;18.690;2022-11-15T10:00:41;98856.80;;;9.70
71081;BMP180;58740;50.672;18.690;2022-11-15T10:03:39;98853.80;;;9.70
71081;BMP180;58740;50.672;18.690;2022-11-15T10:06:23;98849.80;;;9.80
71081;BMP180;58740;50.672;18.690;2022-11-15T10:09:15;98846.00;;;9.80
71081;BMP180;58740;50.672;18.690;2022-11-15T10:11:49;98838.80;;;9.90
71081;BMP180;58740;50.672;18.690;2022-11-15T10:14:21;98838.60;;;10.00
71081;BMP180;58740;50.672;18.690;2022-11-15T10:20:17;98831.20;;;10.10
71081;BMP180;58740;50.672;18.690;2022-11-15T10:22:52;98832.20;;;10.20
71081;BMP180;58740;50.672;18.690;2022-11-15T10:25:30;98830.80;;;10.20
71081;BMP180;58740;50.672;18.690;2022-11-15T10:30:40;98833.20;;;10.30
71081;BMP180;58740;50.672;18.690;2022-11-15T10:33:30;98831.00;;;10.38
71081;BMP180;58740;50.672;18.690;2022-11-15T10:36:18;98824.20;;;10.40
71081;BMP180;58740;50.672;18.690;2022-11-15T10:41:30;98820.80;;;10.60
71081;BMP180;58740;50.672;18.690;2022-11-15T10:47:25;98815.00;;;10.70
71081;BMP180;58740;50.672;18.690;2022-11-15T10:50:05;98804.60;;;10.70
71081;BMP180;58740;50.672;18.690;2022-11-15T10:52:36;98804.20;;;10.80
71081;BMP180;58740;50.672;18.690;2022-11-15T10:55:24;98803.80;;;10.86
71081;BMP180;58740;50.672;18.690;2022-11-15T10:58:05;98799.20;;;10.90
71081;BMP180;58740;50.672;18.690;2022-11-15T11:00:37;98797.40;;;11.00
71081;BMP180;58740;50.672;18.690;2022-11-15T11:03:35;98797.20;;;11.00
71081;BMP180;58740;50.672;18.690;2022-11-15T11:08:40;98790.60;;;11.10
71081;BMP180;58740;50.672;18.690;2022-11-15T11:11:07;98789.60;;;11.10
71081;BMP180;58740;50.672;18.690;2022-11-15T11:13:39;98785.20;;;11.14
71081;BMP180;58740;50.672;18.690;2022-11-15T11:21:51;98790.60;;;11.26
71081;BMP180;58740;50.672;18.690;2022-11-15T11:27:48;98779.60;;;11.30
71081;BMP180;58740;50.672;18.690;2022-11-15T11:33:25;98770.40;;;11.30
71081;BMP180;58740;50.672;18.690;2022-11-15T11:42:42;98763.20;;;11.40
71081;BMP180;58740;50.672;18.690;2022-11-15T11:48:14;98756.00;;;11.40
71081;BMP180;58740;50.672;18.690;2022-11-15T11:50:48;98751.20;;;11.40
71081;BMP180;58740;50.672;18.690;2022-11-15T11:53:41;98745.60;;;11.40
71081;BMP180;58740;50.672;18.690;2022-11-15T11:56:25;98743.60;;;11.40
71081;BMP180;58740;50.672;18.690;2022-11-15T11:59:02;98743.60;;;11.40
71081;BMP180;58740;50.672;18.690;2022-11-15T12:01:39;98741.40;;;11.40
71081;BMP180;58740;50.672;18.690;2022-11-15T12:07:01;98734.40;;;11.50
71081;BMP180;58740;50.672;18.690;2022-11-15T12:09:43;98730.60;;;11.50
71081;BMP180;58740;50.672;18.690;2022-11-15T12:13:15;98725.40;;;11.50
71081;BMP180;58740;50.672;18.690;2022-11-15T12:16:10;98720.80;;;11.60
71081;BMP180;58740;50.672;18.690;2022-11-15T12:18:48;98711.80;;;11.60
71081;BMP180;58740;50.672;18.690;2022-11-15T12:24:24;98705.20;;;11.60
71081;BMP180;58740;50.672;18.690;2022-11-15T12:27:17;98705.80;;;11.60
71081;BMP180;58740;50.672;18.690;2022-11-15T12:29:57;98703.60;;;11.60
71081;BMP180;58740;50.672;18.690;2022-11-15T12:32:32;98702.20;;;11.68
71081;BMP180;58740;50.672;18.690;2022-11-15T12:35:04;98703.60;;;11.70
71081;BMP180;58740;50.672;18.690;2022-11-15T12:45:45;98692.60;;;11.70
71081;BMP180;58740;50.672;18.690;2022-11-15T12:59:00;98676.00;;;11.78
71081;BMP180;58740;50.672;18.690;2022-11-15T13:14:58;98663.00;;;11.70
71081;BMP180;58740;50.672;18.690;2022-11-15T13:17:31;98667.60;;;11.70
71081;BMP180;58740;50.672;18.690;2022-11-15T13:20:17;98662.00;;;11.70
71081;BMP180;58740;50.672;18.690;2022-11-15T13:23:09;98662.00;;;11.70
71081;BMP180;58740;50.672;18.690;2022-11-15T13:26:10;98663.00;;;11.70
71081;BMP180;58740;50.672;18.690;2022-11-15T13:28:48;98649.60;;;11.60
71081;BMP180;58740;50.672;18.690;2022-11-15T13:31:47;98656.80;;;11.60
71081;BMP180;58740;50.672;18.690;2022-11-15T13:34:31;98652.80;;;11.60
71081;BMP180;58740;50.672;18.690;2022-11-15T13:39:49;98652.60;;;11.70
71081;BMP180;58740;50.672;18.690;2022-11-15T13:42:20;98650.20;;;11.70
71081;BMP180;58740;50.672;18.690;2022-11-15T13:45:00;98650.60;;;11.70
71081;BMP180;58740;50.672;18.690;2022-11-15T13:47:30;98647.60;;;11.62
71081;BMP180;58740;50.672;18.690;2022-11-15T13:49:59;98649.20;;;11.60
71081;BMP180;58740;50.672;18.690;2022-11-15T13:52:33;98638.80;;;11.60
71081;BMP180;58740;50.672;18.690;2022-11-15T13:55:13;98641.20;;;11.50
71081;BMP180;58740;50.672;18.690;2022-11-15T13:57:48;98642.20;;;11.50
71081;BMP180;58740;50.672;18.690;2022-11-15T14:00:38;98639.20;;;11.50
71081;BMP180;58740;50.672;18.690;2022-11-15T14:03:25;98635.20;;;11.50
71081;BMP180;58740;50.672;18.690;2022-11-15T14:06:14;98635.40;;;11.50
71081;BMP180;58740;50.672;18.690;2022-11-15T14:11:48;98628.20;;;11.40
71081;BMP180;58740;50.672;18.690;2022-11-15T14:14:21;98629.20;;;11.40
71081;BMP180;58740;50.672;18.690;2022-11-15T14:17:00;98628.20;;;11.40
71081;BMP180;58740;50.672;18.690;2022-11-15T14:24:38;98624.20;;;11.40
71081;BMP180;58740;50.672;18.690;2022-11-15T14:27:20;98620.60;;;11.30
71081;BMP180;58740;50.672;18.690;2022-11-15T14:29:48;98620.00;;;11.30
71081;BMP180;58740;50.672;18.690;2022-11-15T14:32:27;98615.20;;;11.20
71081;BMP180;58740;50.672;18.690;2022-11-15T14:34:59;98619.20;;;11.20
71081;BMP180;58740;50.672;18.690;2022-11-15T14:37:33;98610.80;;;11.20
71081;BMP180;58740;50.672;18.690;2022-11-15T14:40:05;98618.60;;;11.20
71081;BMP180;58740;50.672;18.690;2022-11-15T14:42:33;98613.60;;;11.10
71081;BMP180;58740;50.672;18.690;2022-11-15T14:45:01;98615.00;;;11.10
71081;BMP180;58740;50.672;18.690;2022-11-15T14:47:28;98610.40;;;11.00
71081;BMP180;58740;50.672;18.690;2022-11-15T14:49:56;98609.60;;;11.00
71081;BMP180;58740;50.672;18.690;2022-11-15T14:52:28;98604.40;;;10.96
71081;BMP180;58740;50.672;18.690;2022-11-15T14:55:01;98601.00;;;10.90
71081;BMP180;58740;50.672;18.690;2022-11-15T14:57:30;98596.20;;;10.90
71081;BMP180;58740;50.672;18.690;2022-11-15T14:59:58;98593.40;;;10.90
71081;BMP180;58740;50.672;18.690;2022-11-15T15:02:27;98591.60;;;10.90
71081;BMP180;58740;50.672;18.690;2022-11-15T15:04:55;98587.60;;;10.80
71081;BMP180;58740;50.672;18.690;2022-11-15T15:07:23;98585.20;;;10.80
71081;BMP180;58740;50.672;18.690;2022-11-15T15:09:51;98582.60;;;10.70
71081;BMP180;58740;50.672;18.690;2022-11-15T15:12:21;98582.00;;;10.70
71081;BMP180;58740;50.672;18.690;2022-11-15T15:14:50;98577.60;;;10.70
71081;BMP180;58740;50.672;18.690;2022-11-15T15:17:17;98573.00;;;10.70
71081;BMP180;58740;50.672;18.690;2022-11-15T15:19:45;98572.40;;;10.64
71081;BMP180;58740;50.672;18.690;2022-11-15T15:22:17;98563.60;;;10.60
71081;BMP180;58740;50.672;18.690;2022-11-15T15:24:46;98564.20;;;10.60
71081;BMP180;58740;50.672;18.690;2022-11-15T15:27:14;98562.80;;;10.50
71081;BMP180;58740;50.672;18.690;2022-11-15T15:29:42;98560.80;;;10.50
71081;BMP180;58740;50.672;18.690;2022-11-15T15:32:10;98561.00;;;10.50
71081;BMP180;58740;50.672;18.690;2022-11-15T15:34:38;98562.60;;;10.50
71081;BMP180;58740;50.672;18.690;2022-11-15T15:37:25;98564.80;;;10.50
71081;BMP180;58740;50.672;18.690;2022-11-15T15:39:56;98559.40;;;10.50
71081;BMP180;58740;50.672;18.690;2022-11-15T15:42:24;98554.80;;;10.50
71081;BMP180;58740;50.672;18.690;2022-11-15T15:44:52;98556.60;;;10.50
71081;BMP180;58740;50.672;18.690;2022-11-15T15:47:22;98553.80;;;10.40
71081;BMP180;58740;50.672;18.690;2022-11-15T15:49:50;98551.20;;;10.40
71081;BMP180;58740;50.672;18.690;2022-11-15T15:52:18;98548.60;;;10.40
71081;BMP180;58740;50.672;18.690;2022-11-15T15:54:47;98547.00;;;10.40
71081;BMP180;58740;50.672;18.690;2022-11-15T15:57:14;98547.60;;;10.40
71081;BMP180;58740;50.672;18.690;2022-11-15T15:59:42;98548.40;;;10.40
71081;BMP180;58740;50.672;18.690;2022-11-15T16:02:13;98544.00;;;10.40
71081;BMP180;58740;50.672;18.690;2022-11-15T16:04:41;98538.20;;;10.40
71081;BMP180;58740;50.672;18.690;2022-11-15T16:07:20;98543.00;;;10.40
71081;BMP180;58740;50.672;18.690;2022-11-15T16:09:50;98544.40;;;10.32
71081;BMP180;58740;50.672;18.690;2022-11-15T16:12:33;98542.80;;;10.32
71081;BMP180;58740;50.672;18.690;2022-11-15T16:15:02;98539.60;;;10.40
71081;BMP180;58740;50.672;18.690;2022-11-15T16:17:37;98543.40;;;10.40
71081;BMP180;58740;50.672;18.690;2022-11-15T16:20:06;98538.20;;;10.40
71081;BMP180;58740;50.672;18.690;2022-11-15T16:22:34;98538.60;;;10.40
71081;BMP180;58740;50.672;18.690;2022-11-15T16:25:02;98534.40;;;10.40
71081;BMP180;58740;50.672;18.690;2022-11-15T16:27:30;98538.80;;;10.40
71081;BMP180;58740;50.672;18.690;2022-11-15T16:29:58;98539.20;;;10.38
71081;BMP180;58740;50.672;18.690;2022-11-15T16:32:25;98533.00;;;10.36
71081;BMP180;58740;50.672;18.690;2022-11-15T16:34:53;98538.60;;;10.40